Time;durP1;ratioP1;P1;durP2;ratioP2;P2;SDS_P1;SDS_P2;PMS_P1;PMS_P2;Temp;Humidity;BMP_temperature;BMP_pressure;BME280_temperature;BME280_humidity;BME280_pressure;Samples;Min_cycle;Max_cycle;Signal;HPM_P1;HPM_P2
2022/09/28 00:00:31;;;;;;;0.52;0.52;;;6.40;99.90;;;;;;5062920;28;20047;-86
2022/09/28 00:02:58;;;;;;;0.50;0.50;;;6.40;99.90;;;;;;5064377;28;20090;-87
2022/09/28 00:05:25;;;;;;;;;;;6.40;99.90;;;;;;5088348;28;20504;-88
2022/09/28 00:07:55;;;;;;;0.50;0.50;;;6.50;99.90;;;;;;5091431;28;19999;-88
2022/09/28 00:10:22;;;;;;;0.50;0.50;;;6.50;99.90;;;;;;5059735;28;20056;-87
2022/09/28 00:12:49;;;;;;;0.50;0.50;;;6.80;99.90;;;;;;5091149;28;20487;-87
2022/09/28 00:15:15;;;;;;;0.65;0.65;;;7.10;99.90;;;;;;5071086;28;20393;-88
2022/09/28 00:17:43;;;;;;;0.50;0.50;;;6.60;99.90;;;;;;5046858;28;20035;-86
2022/09/28 00:20:10;;;;;;;0.50;0.50;;;6.90;99.90;;;;;;5095657;28;20056;-86
2022/09/28 00:22:36;;;;;;;0.50;0.50;;;6.60;99.90;;;;;;5059448;28;20543;-85
2022/09/28 00:25:03;;;;;;;0.47;0.47;;;7.00;99.90;;;;;;5068290;28;20074;-86
2022/09/28 00:27:29;;;;;;;0.60;0.60;;;6.70;99.90;;;;;;5099853;28;20043;-87
2022/09/28 00:29:54;;;;;;;0.65;0.65;;;6.80;99.90;;;;;;5095542;28;20046;-87
2022/09/28 00:32:23;;;;;;;0.80;0.80;;;6.80;99.90;;;;;;5060693;28;20523;-87
2022/09/28 00:34:50;;;;;;;0.50;0.50;;;6.90;99.90;;;;;;5086328;28;20551;-87
2022/09/28 00:37:17;;;;;;;0.43;0.43;;;6.80;99.90;;;;;;5068648;28;20044;-87
2022/09/28 00:39:44;;;;;;;4.80;0.80;;;6.90;99.90;;;;;;5084150;28;20079;-86
2022/09/28 00:42:17;;;;;;;0.50;0.50;;;6.80;99.90;;;;;;5094497;28;20397;-86
2022/09/28 00:44:47;;;;;;;0.60;0.60;;;6.70;99.90;;;;;;5074895;28;20031;-87
2022/09/28 00:47:48;;;;;;;0.50;0.50;;;6.70;99.90;;;;;;5093362;28;20080;-87
2022/09/28 00:50:31;;;;;;;0.57;0.57;;;6.60;99.90;;;;;;5077708;28;20048;-86
2022/09/28 00:53:20;;;;;;;0.60;0.60;;;6.70;99.90;;;;;;5094451;28;20039;-86
2022/09/28 00:55:52;;;;;;;0.57;0.57;;;6.70;99.90;;;;;;5086339;28;20072;-85
2022/09/28 00:58:23;;;;;;;0.60;0.60;;;6.60;99.90;;;;;;5068651;28;20056;-86
2022/09/28 01:00:49;;;;;;;0.60;0.60;;;7.00;99.90;;;;;;5077951;28;20441;-86
2022/09/28 01:03:15;;;;;;;0.60;0.60;;;6.50;99.90;;;;;;5060760;28;20101;-85
2022/09/28 01:05:43;;;;;;;0.52;0.52;;;8.00;99.90;;;;;;5095720;28;20384;-88
2022/09/28 01:08:10;;;;;;;0.50;0.50;;;6.40;99.90;;;;;;5091735;28;20044;-88
2022/09/28 01:10:38;;;;;;;0.50;0.50;;;6.40;99.90;;;;;;5096012;28;20454;-87
2022/09/28 01:13:04;;;;;;;0.50;0.50;;;7.50;99.90;;;;;;5097000;28;20043;-88
2022/09/28 01:15:34;;;;;;;0.57;0.57;;;6.30;99.90;;;;;;5071385;28;20032;-86
2022/09/28 01:18:03;;;;;;;0.50;0.50;;;7.00;99.90;;;;;;5066577;28;20062;-86
2022/09/28 01:20:42;;;;;;;0.52;0.52;;;6.70;99.90;;;;;;5087431;28;20064;-86
2022/09/28 01:23:21;;;;;;;0.60;0.60;;;6.20;99.90;;;;;;5077092;28;20387;-85
2022/09/28 01:25:52;;;;;;;0.70;0.70;;;6.20;99.90;;;;;;5077401;28;20040;-84
2022/09/28 01:28:22;;;;;;;0.47;0.47;;;6.00;99.90;;;;;;5090591;28;20036;-85
2022/09/28 01:31:11;;;;;;;0.60;0.60;;;6.10;99.90;;;;;;5082617;28;20047;-86
2022/09/28 01:33:45;;;;;;;0.50;0.50;;;5.90;99.90;;;;;;5095436;28;20051;-86
2022/09/28 01:36:13;;;;;;;0.60;0.60;;;6.30;99.90;;;;;;5093440;28;20044;-86
2022/09/28 01:38:49;;;;;;;0.60;0.60;;;5.90;99.90;;;;;;5069514;28;20130;-86
2022/09/28 01:41:16;;;;;;;0.60;0.60;;;5.90;99.90;;;;;;5092683;28;20036;-87
2022/09/28 01:43:48;;;;;;;0.80;0.80;;;5.90;99.90;;;;;;5094733;28;20047;-87
2022/09/28 01:46:21;;;;;;;0.50;0.50;;;6.10;99.90;;;;;;5094506;28;20051;-87
2022/09/28 01:48:58;;;;;;;0.60;0.60;;;6.00;99.90;;;;;;5078912;28;20313;-87
2022/09/28 01:51:36;;;;;;;0.68;0.68;;;5.70;99.90;;;;;;5061024;28;20044;-87
2022/09/28 01:54:17;;;;;;;0.68;0.68;;;5.70;99.90;;;;;;5106809;28;20044;-86
2022/09/28 01:56:53;;;;;;;0.60;0.60;;;5.60;99.90;;;;;;5091789;28;20044;-85
2022/09/28 01:59:23;;;;;;;0.68;0.68;;;5.60;99.90;;;;;;5070751;28;20044;-85
2022/09/28 02:01:57;;;;;;;0.55;0.55;;;5.60;99.90;;;;;;5092850;28;20048;-84
2022/09/28 02:04:44;;;;;;;0.70;0.70;;;5.60;99.90;;;;;;5092957;28;20036;-86
2022/09/28 02:07:33;;;;;;;0.60;0.60;;;5.30;99.90;;;;;;5095515;28;20101;-86
2022/09/28 02:10:05;;;;;;;0.60;0.60;;;5.60;99.90;;;;;;5069002;28;20048;-87
2022/09/28 02:12:42;;;;;;;0.70;0.70;;;5.60;99.90;;;;;;5087265;28;20040;-85
2022/09/28 02:15:27;;;;;;;0.60;0.60;;;5.70;99.90;;;;;;5092904;28;20040;-86
2022/09/28 02:17:53;;;;;;;0.65;0.65;;;5.70;99.90;;;;;;5092190;28;20070;-85
2022/09/28 02:20:22;;;;;;;0.50;0.50;;;6.40;99.90;;;;;;5064961;28;20460;-85
2022/09/28 02:22:56;;;;;;;0.50;0.50;;;5.80;99.90;;;;;;5069168;28;20122;-86
2022/09/28 02:25:33;;;;;;;0.60;0.60;;;5.80;99.90;;;;;;5091185;28;20040;-86
2022/09/28 02:28:04;;;;;;;0.60;0.60;;;5.90;99.90;;;;;;5074236;28;20340;-85
2022/09/28 02:30:31;;;;;;;0.60;0.60;;;5.90;99.90;;;;;;5070139;28;20085;-86
2022/09/28 02:33:10;;;;;;;0.70;0.70;;;6.10;99.90;;;;;;5075188;28;20074;-86
2022/09/28 02:35:37;;;;;;;0.40;0.40;;;5.90;99.90;;;;;;5097824;28;20036;-87
2022/09/28 02:38:03;;;;;;;0.60;0.60;;;6.60;99.90;;;;;;5057243;28;20068;-87
2022/09/28 02:40:32;;;;;;;0.70;0.70;;;6.60;99.90;;;;;;5056819;28;20143;-89
2022/09/28 02:43:25;;;;;;;0.50;0.50;;;6.00;99.90;;;;;;5077686;28;20550;-86
2022/09/28 02:46:19;;;;;;;0.60;0.60;;;6.40;99.90;;;;;;5085096;28;20047;-85
2022/09/28 02:48:54;;;;;;;0.52;0.52;;;6.00;99.90;;;;;;5090521;28;20032;-86
2022/09/28 02:51:29;;;;;;;0.43;0.43;;;6.10;99.90;;;;;;5066486;28;20036;-87
2022/09/28 02:54:25;;;;;;;0.85;0.85;;;5.30;99.90;;;;;;5089398;28;20043;-85
2022/09/28 02:56:51;;;;;;;0.50;0.50;;;6.00;99.90;;;;;;5089187;28;20089;-86
2022/09/28 02:59:47;;;;;;;0.57;0.57;;;6.30;99.90;;;;;;5072603;28;20048;-84
2022/09/28 03:02:26;;;;;;;0.70;0.70;;;6.00;99.90;;;;;;5083351;28;20420;-87
2022/09/28 03:05:04;;;;;;;0.60;0.60;;;6.00;99.90;;;;;;5089950;28;20130;-87
2022/09/28 03:07:45;;;;;;;0.52;0.52;;;5.90;99.90;;;;;;5091933;28;20363;-86
2022/09/28 03:10:34;;;;;;;0.52;0.52;;;6.00;99.90;;;;;;5096328;28;20039;-87
2022/09/28 03:13:06;;;;;;;0.50;0.50;;;5.90;99.90;;;;;;5053493;28;20048;-86
2022/09/28 03:15:34;;;;;;;0.50;0.50;;;5.90;99.90;;;;;;5081979;28;20040;-86
2022/09/28 03:18:03;;;;;;;0.52;0.52;;;5.70;99.90;;;;;;5091876;28;20044;-86
2022/09/28 03:20:32;;;;;;;0.40;0.40;;;5.70;99.90;;;;;;5074138;28;20086;-85
2022/09/28 03:22:58;;;;;;;0.70;0.70;;;5.60;99.90;;;;;;5087072;28;20036;-84
2022/09/28 03:25:23;;;;;;;0.70;0.70;;;5.60;99.90;;;;;;5101026;28;20032;-84
2022/09/28 03:27:49;;;;;;;0.57;0.57;;;5.50;99.90;;;;;;5062950;28;20044;-88
2022/09/28 03:30:15;;;;;;;0.45;0.45;;;5.50;99.90;;;;;;5078527;28;20051;-86
2022/09/28 03:32:41;;;;;;;;;;;6.60;99.90;;;;;;5071388;28;20444;-87
2022/09/28 03:35:08;;;;;;;0.52;0.52;;;5.40;99.90;;;;;;5074917;28;19920;-86
2022/09/28 03:37:35;;;;;;;0.57;0.57;;;5.40;99.90;;;;;;5061186;28;20040;-87
2022/09/28 03:40:02;;;;;;;0.45;0.45;;;5.50;99.90;;;;;;5081368;28;20075;-87
2022/09/28 03:42:27;;;;;;;0.55;0.55;;;5.60;99.90;;;;;;5086860;28;20092;-87
2022/09/28 03:44:53;;;;;;;0.60;0.60;;;5.40;99.90;;;;;;5064603;28;20486;-86
2022/09/28 03:47:19;;;;;;;0.50;0.50;;;5.30;99.90;;;;;;5087626;28;20579;-89
2022/09/28 03:49:45;;;;;;;0.60;0.60;;;6.40;99.90;;;;;;5082835;28;20067;-86
2022/09/28 03:52:12;;;;;;;0.65;0.65;;;6.00;99.90;;;;;;5065213;28;20044;-87
2022/09/28 03:54:42;;;;;;;0.55;0.55;;;5.50;99.90;;;;;;5064394;28;20389;-86
2022/09/28 03:57:08;;;;;;;0.60;0.60;;;5.00;99.90;;;;;;5070909;28;20073;-86
2022/09/28 03:59:36;;;;;;;0.60;0.60;;;5.10;99.90;;;;;;5093476;28;20127;-87
2022/09/28 04:02:03;;;;;;;0.60;0.60;;;5.10;99.90;;;;;;5070237;28;20045;-84
2022/09/28 04:04:28;;;;;;;0.60;0.60;;;5.10;99.90;;;;;;5084008;28;20051;-85
2022/09/28 04:06:54;;;;;;;0.65;0.65;;;5.60;99.90;;;;;;5084090;28;20048;-84
2022/09/28 04:09:20;;;;;;;0.50;0.50;;;5.30;99.90;;;;;;5086538;28;20036;-87
2022/09/28 04:11:46;;;;;;;0.60;0.60;;;5.20;99.90;;;;;;5074891;28;20102;-84
2022/09/28 04:14:12;;;;;;;0.68;0.68;;;5.50;99.90;;;;;;5054368;28;20044;-87
2022/09/28 04:16:37;;;;;;;0.60;0.60;;;5.40;99.90;;;;;;5061180;28;20062;-87
2022/09/28 04:19:03;;;;;;;0.63;0.63;;;5.70;99.90;;;;;;5070522;28;20123;-88
2022/09/28 04:21:29;;;;;;;0.60;0.60;;;5.90;99.90;;;;;;5086093;28;20056;-88
2022/09/28 04:23:56;;;;;;;0.65;0.65;;;5.60;99.90;;;;;;5091419;28;20507;-86
2022/09/28 04:26:25;;;;;;;0.70;0.70;;;5.90;99.90;;;;;;5066568;28;20089;-88
2022/09/28 04:31:45;;;;;;;11.10;2.67;;;5.80;99.90;;;;;;5095962;28;20044;-87
2022/09/28 04:34:13;;;;;;;0.68;0.68;;;5.80;99.90;;;;;;5085245;28;20626;-88
2022/09/28 04:36:40;;;;;;;0.70;0.70;;;5.70;99.90;;;;;;5055464;28;20244;-88
2022/09/28 04:39:06;;;;;;;0.80;0.80;;;6.10;99.90;;;;;;5059916;28;20051;-88
2022/09/28 04:41:32;;;;;;;0.55;0.55;;;5.90;99.90;;;;;;5072386;28;20393;-87
2022/09/28 04:43:58;;;;;;;0.52;0.52;;;5.90;99.90;;;;;;5066827;28;20477;-87
2022/09/28 04:46:23;;;;;;;0.68;0.68;;;6.30;99.90;;;;;;5087487;28;20047;-89
2022/09/28 04:48:49;;;;;;;0.50;0.50;;;6.00;99.90;;;;;;5055521;28;20049;-88
2022/09/28 04:51:15;;;;;;;0.50;0.50;;;6.40;99.90;;;;;;5071076;28;20177;-90
2022/09/28 04:53:40;;;;;;;0.93;0.93;;;5.90;99.90;;;;;;5049514;28;20075;-92
2022/09/28 04:56:09;;;;;;;0.65;0.65;;;5.80;99.90;;;;;;5069301;28;20044;-86
2022/09/28 04:58:35;;;;;;;0.60;0.60;;;5.80;99.90;;;;;;5084837;28;20739;-84
2022/09/28 05:01:04;;;;;;;;;;;5.70;99.90;;;;;;5091785;28;20045;-87
2022/09/28 05:03:30;;;;;;;0.60;0.60;;;5.70;99.90;;;;;;5064583;28;20657;-84
2022/09/28 05:05:55;;;;;;;0.60;0.60;;;6.30;99.90;;;;;;5059255;28;20051;-85
2022/09/28 05:08:21;;;;;;;0.63;0.63;;;5.70;99.90;;;;;;5075264;28;20455;-84
2022/09/28 05:10:47;;;;;;;0.55;0.55;;;5.70;99.90;;;;;;5089904;28;20459;-84
2022/09/28 05:13:13;;;;;;;0.60;0.60;;;5.60;99.90;;;;;;5093073;28;20105;-84
2022/09/28 05:15:40;;;;;;;0.52;0.52;;;5.70;99.90;;;;;;5077997;28;20036;-84
2022/09/28 05:18:08;;;;;;;0.60;0.60;;;5.60;99.90;;;;;;5082624;28;20035;-84
2022/09/28 05:20:40;;;;;;;0.60;0.60;;;5.60;99.90;;;;;;5080999;28;20113;-84
2022/09/28 05:23:07;;;;;;;0.50;0.50;;;5.60;99.90;;;;;;5074702;28;20048;-84
2022/09/28 05:25:34;;;;;;;0.63;0.63;;;5.80;99.90;;;;;;5092965;28;20039;-85
2022/09/28 05:28:02;;;;;;;0.50;0.50;;;5.60;99.90;;;;;;5092845;28;20040;-84
2022/09/28 05:30:28;;;;;;;0.70;0.70;;;5.60;99.90;;;;;;5076224;28;20073;-84
2022/09/28 05:32:56;;;;;;;0.45;0.45;;;5.50;99.90;;;;;;5079365;28;20032;-84
2022/09/28 05:35:22;;;;;;;0.60;0.60;;;5.50;99.90;;;;;;5050391;28;20051;-84
2022/09/28 05:37:48;;;;;;;0.60;0.60;;;5.90;99.90;;;;;;5078310;28;20043;-84
2022/09/28 05:40:14;;;;;;;0.60;0.60;;;5.30;99.90;;;;;;5060106;28;20043;-83
2022/09/28 05:42:41;;;;;;;0.60;0.60;;;5.20;99.90;;;;;;5058910;28;20500;-83
2022/09/28 05:45:07;;;;;;;;;;;5.10;99.90;;;;;;5081475;28;20067;-84
2022/09/28 05:47:37;;;;;;;0.57;0.57;;;5.10;99.90;;;;;;5082534;28;19924;-89
2022/09/28 05:50:05;;;;;;;0.60;0.60;;;5.00;99.90;;;;;;5081484;28;20040;-88
2022/09/28 05:52:30;;;;;;;0.55;0.55;;;5.00;99.90;;;;;;5086761;28;20127;-88
2022/09/28 05:54:56;;;;;;;0.50;0.50;;;4.90;99.90;;;;;;5081302;28;20130;-89
2022/09/28 05:57:22;;;;;;;0.50;0.50;;;5.20;99.90;;;;;;5069734;28;20093;-88
2022/09/28 05:59:47;;;;;;;0.55;0.55;;;5.00;99.90;;;;;;5074575;28;20544;-87
2022/09/28 06:02:13;;;;;;;0.50;0.50;;;5.00;99.90;;;;;;5069063;28;20044;-88
2022/09/28 06:04:39;;;;;;;0.50;0.50;;;5.10;99.90;;;;;;5067402;28;20048;-88
2022/09/28 06:07:05;;;;;;;;;;;5.00;99.90;;;;;;5081744;28;20036;-87
2022/09/28 06:09:30;;;;;;;0.50;0.50;;;5.20;99.90;;;;;;5083928;28;19961;-85
2022/09/28 06:11:59;;;;;;;0.63;0.63;;;5.20;99.90;;;;;;5075728;28;20043;-86
2022/09/28 06:14:25;;;;;;;0.45;0.45;;;5.20;99.90;;;;;;5085074;28;20152;-87
2022/09/28 06:16:51;;;;;;;0.60;0.60;;;5.30;99.90;;;;;;5088860;28;20079;-86
2022/09/28 06:19:17;;;;;;;0.60;0.60;;;5.30;99.90;;;;;;5080124;28;20052;-87
2022/09/28 06:21:43;;;;;;;0.63;0.63;;;5.40;99.90;;;;;;5078075;28;20566;-87
2022/09/28 06:24:08;;;;;;;0.60;0.60;;;5.50;99.90;;;;;;5070075;28;20043;-87
2022/09/28 06:26:34;;;;;;;0.50;0.50;;;5.70;99.90;;;;;;5079784;28;20040;-87
2022/09/28 06:29:00;;;;;;;0.60;0.60;;;5.30;99.90;;;;;;5080017;28;20040;-87
2022/09/28 06:31:30;;;;;;;0.60;0.60;;;5.80;99.90;;;;;;5087989;28;20109;-88
2022/09/28 06:34:00;;;;;;;0.50;0.50;;;5.90;99.90;;;;;;5093498;28;20032;-86
2022/09/28 06:36:32;;;;;;;0.52;0.52;;;5.60;99.90;;;;;;5106087;28;20052;-88
2022/09/28 06:38:58;;;;;;;0.50;0.50;;;6.90;99.90;;;;;;5091585;28;20044;-87
2022/09/28 06:41:24;;;;;;;0.60;0.60;;;6.00;99.90;;;;;;5057455;28;20434;-87
2022/09/28 06:43:51;;;;;;;0.60;0.60;;;6.10;99.90;;;;;;5062765;28;20040;-86
2022/09/28 06:46:16;;;;;;;0.60;0.60;;;6.10;99.90;;;;;;5072659;28;20381;-87
2022/09/28 06:48:43;;;;;;;0.50;0.50;;;6.20;99.90;;;;;;5067990;28;20043;-86
2022/09/28 06:51:09;;;;;;;0.60;0.60;;;6.80;99.90;;;;;;5066831;28;20045;-87
2022/09/28 06:53:35;;;;;;;0.70;0.70;;;6.00;99.90;;;;;;5090413;28;20126;-87
2022/09/28 06:56:01;;;;;;;0.50;0.50;;;6.10;99.90;;;;;;5064520;28;20366;-86
2022/09/28 06:58:27;;;;;;;0.50;0.50;;;6.40;99.90;;;;;;5075738;28;20047;-87
2022/09/28 07:00:58;;;;;;;0.50;0.50;;;6.40;99.90;;;;;;5055239;28;20044;-87
2022/09/28 07:03:25;;;;;;;0.60;0.60;;;6.50;99.90;;;;;;5066527;28;20505;-87
2022/09/28 07:05:53;;;;;;;0.60;0.60;;;6.60;99.90;;;;;;5067495;28;20068;-87
2022/09/28 07:08:20;;;;;;;1.27;1.27;;;6.60;99.90;;;;;;5090329;28;20558;-87
2022/09/28 07:10:47;;;;;;;0.70;0.70;;;6.70;99.90;;;;;;5091561;28;20044;-87
2022/09/28 07:13:19;;;;;;;0.55;0.55;;;6.80;99.90;;;;;;5077204;28;20076;-87
2022/09/28 07:15:44;;;;;;;0.60;0.60;;;6.80;99.90;;;;;;5081360;28;20048;-87
2022/09/28 07:18:11;;;;;;;0.68;0.68;;;6.90;99.90;;;;;;5075464;28;20036;-87
2022/09/28 07:20:37;;;;;;;0.50;0.50;;;6.90;99.90;;;;;;5073721;28;20136;-88
2022/09/28 07:23:06;;;;;;;0.50;0.50;;;7.20;99.90;;;;;;5073745;28;20126;-87
2022/09/28 07:25:33;;;;;;;0.50;0.50;;;7.10;99.90;;;;;;5068673;28;20421;-86
2022/09/28 07:28:00;;;;;;;0.52;0.52;;;8.30;99.90;;;;;;5075007;28;20048;-87
2022/09/28 07:30:26;;;;;;;;;;;7.20;99.90;;;;;;5084356;28;20031;-87
2022/09/28 07:32:55;;;;;;;0.67;0.67;;;7.30;99.90;;;;;;5078290;28;19915;-87
2022/09/28 07:35:21;;;;;;;0.40;0.40;;;7.30;99.90;;;;;;5065464;28;20220;-87
2022/09/28 07:37:47;;;;;;;0.70;0.70;;;7.50;99.90;;;;;;5089576;28;20066;-85
2022/09/28 07:43:04;;;;;;;1.00;1.00;;;7.50;99.90;;;;;;5090995;28;19916;-86
2022/09/28 07:45:32;;;;;;;0.50;0.50;;;7.70;99.90;;;;;;5088710;28;20487;-87
2022/09/28 07:47:58;;;;;;;0.57;0.57;;;7.70;99.90;;;;;;5074199;28;20089;-88
2022/09/28 07:50:24;;;;;;;0.80;0.80;;;7.80;99.90;;;;;;5088366;28;20044;-87
2022/09/28 07:52:50;;;;;;;0.60;0.60;;;;;;;;;;5092137;28;20393;-87
2022/09/28 07:55:15;;;;;;;0.50;0.50;;;7.90;99.90;;;;;;5081644;28;20043;-86
2022/09/28 07:57:45;;;;;;;0.50;0.50;;;8.00;99.90;;;;;;5098440;28;21480;-85
2022/09/28 08:00:12;;;;;;;0.40;0.40;;;8.10;99.90;;;;;;5092125;28;20389;-87
2022/09/28 08:02:38;;;;;;;0.77;0.77;;;8.10;99.90;;;;;;5058599;28;20040;-87
2022/09/28 08:05:04;;;;;;;0.50;0.50;;;8.20;99.90;;;;;;5087272;28;20044;-88
2022/09/28 08:07:31;;;;;;;0.57;0.57;;;8.30;99.90;;;;;;5085959;28;20039;-87
2022/09/28 08:09:57;;;;;;;0.50;0.50;;;8.40;99.90;;;;;;5079239;28;20036;-87
2022/09/28 08:12:22;;;;;;;0.50;0.50;;;8.40;99.90;;;;;;5080918;28;20059;-87
2022/09/28 08:14:49;;;;;;;0.60;0.60;;;8.50;99.90;;;;;;5070196;28;20489;-86
2022/09/28 08:17:16;;;;;;;0.40;0.40;;;8.60;99.90;;;;;;5072664;28;20362;-86
2022/09/28 08:22:29;;;;;;;0.90;0.90;;;8.80;99.90;;;;;;5091897;28;20084;-86
2022/09/28 08:24:54;;;;;;;0.80;0.80;;;8.80;99.90;;;;;;5073376;28;20055;-87
2022/09/28 08:27:20;;;;;;;0.52;0.52;;;8.90;99.90;;;;;;5068684;28;20044;-87
2022/09/28 08:29:46;;;;;;;0.65;0.65;;;9.00;99.90;;;;;;5073818;28;20048;-86
2022/09/28 08:32:11;;;;;;;0.82;0.82;;;9.00;99.90;;;;;;5060819;28;20130;-88
2022/09/28 08:34:38;;;;;;;0.50;0.50;;;9.10;99.90;;;;;;5076917;28;20040;-86
2022/09/28 08:37:06;;;;;;;0.45;0.45;;;9.10;99.90;;;;;;5078022;28;20036;-87
2022/09/28 08:39:33;;;;;;;0.50;0.50;;;9.20;99.90;;;;;;5085984;28;20071;-86
2022/09/28 08:42:30;;;;;;;0.40;0.40;;;9.30;99.90;;;;;;5089365;28;20036;-86
2022/09/28 08:45:06;;;;;;;0.45;0.45;;;9.30;99.90;;;;;;5094235;28;20123;-87
2022/09/28 08:50:54;;;;;;;2.58;1.00;;;9.40;99.90;;;;;;5087705;28;20072;-85
2022/09/28 08:53:39;;;;;;;2.47;0.80;;;9.40;99.90;;;;;;5093279;28;20048;-85
2022/09/28 08:56:17;;;;;;;0.82;0.82;;;9.50;99.90;;;;;;5093962;28;20051;-87
2022/09/28 08:58:45;;;;;;;0.40;0.40;;;;;;;;;;5094002;28;20497;-87
2022/09/28 09:01:17;;;;;;;0.60;0.60;;;9.70;99.90;;;;;;5091597;28;20052;-87
2022/09/28 09:03:44;;;;;;;5.25;0.93;;;9.80;99.90;;;;;;5094747;28;20040;-85
2022/09/28 09:06:41;;;;;;;0.88;0.88;;;9.90;99.90;;;;;;5057490;28;20489;-86
2022/09/28 09:09:17;;;;;;;;;;;10.00;99.90;;;;;;5086933;28;20047;-83
2022/09/28 09:12:07;;;;;;;0.40;0.40;;;10.10;99.90;;;;;;5105808;28;19952;-87
2022/09/28 09:15:08;;;;;;;0.40;0.40;;;10.20;99.90;;;;;;5093790;28;20097;-85
2022/09/28 09:17:55;;;;;;;0.88;0.57;;;10.40;99.90;;;;;;5091103;28;20052;-86
2022/09/28 09:20:31;;;;;;;0.60;0.60;;;10.50;99.90;;;;;;5073830;28;20398;-86
2022/09/28 09:22:59;;;;;;;1.07;1.07;;;10.60;99.90;;;;;;5089780;28;20052;-87
2022/09/28 09:25:39;;;;;;;0.40;0.40;;;10.80;99.90;;;;;;5094181;28;20070;-86
2022/09/28 09:28:26;;;;;;;0.40;0.40;;;10.90;99.90;;;;;;5086745;28;20508;-84
2022/09/28 09:31:07;;;;;;;0.30;0.30;;;11.10;99.90;;;;;;5075443;28;20067;-86
2022/09/28 09:34:12;;;;;;;0.60;0.60;;;11.20;99.90;;;;;;5092852;28;20390;-86
2022/09/28 09:37:06;;;;;;;0.45;0.45;;;11.40;99.90;;;;;;5084834;28;20063;-86
2022/09/28 09:39:34;;;;;;;0.50;0.50;;;11.50;99.90;;;;;;5079271;28;20401;-84
2022/09/28 09:42:20;;;;;;;0.45;0.45;;;11.70;99.90;;;;;;5091003;28;20085;-88
2022/09/28 09:45:05;;;;;;;0.57;0.57;;;12.00;99.90;;;;;;5093212;28;20039;-90
2022/09/28 09:47:39;;;;;;;0.45;0.45;;;12.10;99.90;;;;;;5098888;28;20036;-86
2022/09/28 09:50:13;;;;;;;1.08;0.50;;;12.20;99.90;;;;;;5097937;28;20569;-86
2022/09/28 09:52:47;;;;;;;0.30;0.30;;;12.30;99.90;;;;;;5091061;28;20044;-86
2022/09/28 09:55:24;;;;;;;0.40;0.40;;;12.40;99.90;;;;;;5089988;28;20044;-87
2022/09/28 09:58:14;;;;;;;0.40;0.40;;;12.50;99.90;;;;;;5092802;28;20490;-86
2022/09/28 10:00:46;;;;;;;0.47;0.47;;;12.50;99.90;;;;;;5074782;28;20040;-87
2022/09/28 10:03:26;;;;;;;0.40;0.40;;;12.60;99.90;;;;;;5091260;28;20036;-86
2022/09/28 10:06:05;;;;;;;0.30;0.30;;;12.70;99.90;;;;;;5083056;28;20112;-87
2022/09/28 10:08:44;;;;;;;0.40;0.40;;;12.80;99.90;;;;;;5090318;28;20028;-87
2022/09/28 10:11:20;;;;;;;0.40;0.40;;;13.10;99.90;;;;;;5082556;28;20048;-87
2022/09/28 10:13:48;;;;;;;0.32;0.32;;;13.30;99.90;;;;;;5092494;28;20097;-87
2022/09/28 10:16:16;;;;;;;0.30;0.30;;;13.50;99.90;;;;;;5074444;28;20124;-86
2022/09/28 10:18:42;;;;;;;0.70;0.70;;;13.70;99.90;;;;;;5090340;28;20150;-85
2022/09/28 10:21:13;;;;;;;0.20;0.20;;;13.60;99.90;;;;;;5094458;28;20487;-88
2022/09/28 10:23:40;;;;;;;0.50;0.50;;;13.60;99.90;;;;;;5082810;28;20123;-84
2022/09/28 10:26:09;;;;;;;0.30;0.30;;;13.50;99.90;;;;;;5095272;28;20486;-86
2022/09/28 10:28:45;;;;;;;0.30;0.30;;;13.40;99.90;;;;;;5091190;28;20106;-87
2022/09/28 10:31:38;;;;;;;0.30;0.30;;;13.30;99.90;;;;;;5091793;28;20051;-88
2022/09/28 10:34:06;;;;;;;0.40;0.40;;;13.20;99.90;;;;;;5092726;28;20047;-86
2022/09/28 10:36:45;;;;;;;0.32;0.32;;;13.10;99.90;;;;;;5084215;28;20083;-86
2022/09/28 10:39:32;;;;;;;0.30;0.30;;;13.20;99.90;;;;;;5092445;28;20040;-86
2022/09/28 10:42:01;;;;;;;;;;;13.30;99.90;;;;;;5078855;28;20059;-87
2022/09/28 10:44:33;;;;;;;0.40;0.40;;;13.40;99.90;;;;;;5104969;28;20380;-87
2022/09/28 10:47:01;;;;;;;0.30;0.30;;;13.40;99.90;;;;;;5094284;28;20039;-86
2022/09/28 10:49:34;;;;;;;0.30;0.30;;;13.50;99.90;;;;;;5073399;28;20037;-87
2022/09/28 10:52:01;;;;;;;0.20;0.20;;;13.50;99.90;;;;;;5085932;28;20566;-86
2022/09/28 10:54:29;;;;;;;0.40;0.40;;;13.60;99.90;;;;;;5073678;28;20036;-87
2022/09/28 10:56:56;;;;;;;0.40;0.40;;;13.70;99.90;;;;;;5091665;28;20509;-86
2022/09/28 10:59:31;;;;;;;0.30;0.30;;;13.80;99.90;;;;;;5089357;28;20101;-86
2022/09/28 11:02:11;;;;;;;0.35;0.35;;;13.80;99.90;;;;;;5085260;28;20048;-87
2022/09/28 11:04:41;;;;;;;0.30;0.30;;;13.80;99.90;;;;;;5090790;28;20036;-85
2022/09/28 11:07:21;;;;;;;0.20;0.20;;;13.80;99.90;;;;;;5092977;28;20052;-87
2022/09/28 11:09:48;;;;;;;0.38;0.38;;;13.80;99.90;;;;;;5089772;28;20119;-87
2022/09/28 11:12:19;;;;;;;0.20;0.20;;;13.90;99.90;;;;;;5084478;28;20109;-87
2022/09/28 11:14:51;;;;;;;0.20;0.20;;;13.90;99.90;;;;;;5088863;28;20087;-86
2022/09/28 11:17:40;;;;;;;0.30;0.30;;;13.80;99.90;;;;;;5091561;28;20048;-88
2022/09/28 11:20:24;;;;;;;0.20;0.20;;;13.80;99.90;;;;;;5090770;28;20052;-87
2022/09/28 11:22:53;;;;;;;0.30;0.30;;;13.80;99.90;;;;;;5078202;28;20052;-86
2022/09/28 11:25:22;;;;;;;0.30;0.30;;;13.80;99.90;;;;;;5074128;28;20044;-87
2022/09/28 11:27:51;;;;;;;0.20;0.20;;;13.90;99.90;;;;;;5093968;28;20082;-86
2022/09/28 11:30:33;;;;;;;0.20;0.20;;;13.90;99.90;;;;;;5094603;28;20040;-87
2022/09/28 11:33:33;;;;;;;0.20;0.20;;;14.10;99.90;;;;;;5080921;28;20389;-87
2022/09/28 11:36:17;;;;;;;0.20;0.20;;;14.20;99.90;;;;;;5054882;28;20043;-86
2022/09/28 11:39:05;;;;;;;0.30;0.30;;;14.30;99.90;;;;;;5089834;28;20146;-88
2022/09/28 11:41:56;;;;;;;0.50;0.50;;;14.50;99.90;;;;;;5091984;28;20181;-86
2022/09/28 11:44:38;;;;;;;0.20;0.20;;;14.50;99.90;;;;;;5085629;28;20040;-86
2022/09/28 11:48:09;;;;;;;0.30;0.30;;;14.60;99.90;;;;;;5079686;28;20390;-88
2022/09/28 11:50:52;;;;;;;0.20;0.20;;;14.60;99.90;;;;;;5035394;28;20052;-84
2022/09/28 11:53:35;;;;;;;0.30;0.30;;;14.60;99.90;;;;;;5092010;28;20044;-87
2022/09/28 11:56:39;;;;;;;0.20;0.20;;;14.50;99.90;;;;;;5083423;28;20068;-86
2022/09/28 11:59:13;;;;;;;0.20;0.20;;;14.40;99.90;;;;;;5084351;28;20499;-86
2022/09/28 12:01:50;;;;;;;0.30;0.30;;;14.00;99.90;;;;;;5091557;28;20443;-87
2022/09/28 12:04:35;;;;;;;0.40;0.40;;;13.70;99.90;;;;;;5079498;28;20107;-87
2022/09/28 12:07:10;;;;;;;0.32;0.32;;;13.50;99.90;;;;;;5074368;28;20121;-87
2022/09/28 12:09:51;;;;;;;0.20;0.20;;;13.40;99.90;;;;;;5094335;28;20044;-87
2022/09/28 12:12:32;;;;;;;0.30;0.30;;;13.30;99.90;;;;;;5082766;28;20080;-87
2022/09/28 12:15:03;;;;;;;0.30;0.30;;;13.20;99.90;;;;;;5085453;28;20048;-85
2022/09/28 12:17:47;;;;;;;0.20;0.20;;;13.20;99.90;;;;;;5087608;28;20489;-86
2022/09/28 12:20:32;;;;;;;0.30;0.30;;;13.30;99.90;;;;;;5089080;28;20070;-87
2022/09/28 12:23:29;;;;;;;0.30;0.30;;;13.20;99.90;;;;;;5071983;28;20044;-86
2022/09/28 12:26:11;;;;;;;0.30;0.30;;;13.30;99.90;;;;;;5093436;28;20134;-87
2022/09/28 12:28:52;;;;;;;0.20;0.20;;;13.30;99.90;;;;;;5084185;28;20121;-87
2022/09/28 12:31:50;;;;;;;0.20;0.20;;;13.20;99.90;;;;;;5085804;28;20048;-87
2022/09/28 12:34:16;;;;;;;0.25;0.25;;;13.20;99.90;;;;;;5072536;28;20078;-88
2022/09/28 12:37:05;;;;;;;0.35;0.35;;;13.10;99.90;;;;;;5073811;28;20474;-87
2022/09/28 12:39:57;;;;;;;0.47;0.47;;;13.10;99.90;;;;;;5077337;28;20123;-87
2022/09/28 12:42:43;;;;;;;0.30;0.30;;;13.00;99.90;;;;;;5073744;28;20093;-86
2022/09/28 12:45:40;;;;;;;0.30;0.30;;;13.00;99.90;;;;;;5059879;28;20087;-87
2022/09/28 12:48:15;;;;;;;0.30;0.30;;;12.90;99.90;;;;;;5052132;28;20052;-86
2022/09/28 12:50:59;;;;;;;0.30;0.30;;;12.90;99.90;;;;;;5081377;28;20044;-86
2022/09/28 12:53:54;;;;;;;0.20;0.20;;;12.80;99.90;;;;;;5076457;28;20394;-88
2022/09/28 12:56:36;;;;;;;0.35;0.35;;;12.70;99.90;;;;;;5075196;28;20138;-88
2022/09/28 12:59:23;;;;;;;0.20;0.20;;;12.60;99.90;;;;;;5093177;28;20466;-87
2022/09/28 13:02:02;;;;;;;0.30;0.30;;;12.50;99.90;;;;;;5083544;28;20051;-87
2022/09/28 13:04:52;;;;;;;0.30;0.30;;;12.50;99.90;;;;;;5106400;28;20476;-86
2022/09/28 13:07:43;;;;;;;0.20;0.20;;;12.40;99.90;;;;;;5064189;28;20047;-86
2022/09/28 13:10:22;;;;;;;0.30;0.30;;;12.40;99.90;;;;;;5075201;28;20381;-86
2022/09/28 13:12:59;;;;;;;0.35;0.35;;;12.30;99.90;;;;;;5091468;28;20047;-86
2022/09/28 13:15:52;;;;;;;0.30;0.30;;;12.30;99.90;;;;;;5065503;28;20142;-87
2022/09/28 13:18:28;;;;;;;0.20;0.20;;;12.30;99.90;;;;;;5091894;28;20488;-87
2022/09/28 13:21:16;;;;;;;0.30;0.30;;;12.50;99.90;;;;;;5093627;28;20607;-87
2022/09/28 13:23:45;;;;;;;0.20;0.20;;;13.00;99.90;;;;;;5085435;28;20044;-87
2022/09/28 13:26:23;;;;;;;0.30;0.30;;;13.70;99.90;;;;;;5090526;28;20369;-87
2022/09/28 13:28:53;;;;;;;0.30;0.30;;;14.50;99.90;;;;;;5087368;28;20044;-86
2022/09/28 13:31:28;;;;;;;0.20;0.20;;;;;;;;;;5090678;28;20089;-86
2022/09/28 13:33:55;;;;;;;0.30;0.30;;;;;;;;;;5087853;28;20094;-87
2022/09/28 13:36:27;;;;;;;0.30;0.30;;;16.80;99.90;;;;;;5073618;28;20083;-87
2022/09/28 13:38:54;;;;;;;0.40;0.40;;;17.60;99.90;;;;;;5087886;28;20044;-86